createdAt,value
2017-09-03T00:01:08.474Z,26.65
2017-09-03T00:03:34.843Z,26.55
2017-09-03T00:06:01.138Z,26.46
2017-09-03T00:08:27.437Z,26.41
2017-09-03T00:10:53.785Z,26.35
2017-09-03T00:13:20.096Z,26.37
2017-09-03T00:15:46.726Z,26.40
2017-09-03T00:18:13.093Z,26.37
2017-09-03T00:20:39.412Z,26.38
2017-09-03T00:23:05.715Z,26.36
2017-09-03T00:25:32.069Z,26.32
2017-09-03T00:27:58.353Z,26.25
2017-09-03T00:30:24.633Z,26.16
2017-09-03T00:32:50.991Z,26.21
2017-09-03T00:35:17.296Z,26.34
2017-09-03T00:37:43.599Z,26.32
2017-09-03T00:40:09.949Z,26.28
2017-09-03T00:42:36.228Z,26.24
2017-09-03T00:45:02.555Z,26.13
2017-09-03T00:47:28.942Z,26.12
2017-09-03T00:49:55.259Z,26.07
2017-09-03T00:52:21.561Z,26.12
2017-09-03T00:54:47.921Z,26.05
2017-09-03T00:57:14.218Z,26.08
2017-09-03T00:59:40.516Z,26.04
2017-09-03T01:02:06.929Z,26.14
2017-09-03T01:04:33.355Z,26.14
2017-09-03T01:06:59.990Z,26.05
2017-09-03T01:09:26.582Z,26.00
2017-09-03T01:11:53.277Z,26.06
2017-09-03T01:14:19.767Z,26.08
2017-09-03T01:16:46.555Z,26.11
2017-09-03T01:19:13.178Z,26.03
2017-09-03T01:21:39.671Z,26.01
2017-09-03T01:24:06.211Z,26.03
2017-09-03T01:26:32.898Z,26.00
2017-09-03T01:28:59.520Z,25.99
2017-09-03T01:31:26.134Z,26.06
2017-09-03T01:33:52.803Z,26.10
2017-09-03T01:36:19.456Z,26.08
2017-09-03T01:38:46.095Z,25.99
2017-09-03T01:41:12.708Z,26.00
2017-09-03T01:43:39.369Z,25.94
2017-09-03T01:46:05.766Z,25.95
2017-09-03T01:48:32.046Z,25.78
2017-09-03T01:50:58.462Z,25.82
2017-09-03T01:53:25.101Z,25.90
2017-09-03T01:55:51.712Z,25.86
2017-09-03T01:58:18.378Z,25.74
2017-09-03T02:00:45.017Z,25.88
2017-09-03T02:03:11.657Z,25.92
2017-09-03T02:05:38.128Z,25.90
2017-09-03T02:08:04.923Z,25.82
2017-09-03T02:10:31.361Z,25.68
2017-09-03T02:12:57.858Z,25.58
2017-09-03T02:15:24.638Z,25.47
2017-09-03T02:17:51.266Z,25.39
2017-09-03T02:20:17.759Z,25.41
2017-09-03T02:22:44.141Z,25.50
2017-09-03T02:25:10.457Z,25.49
2017-09-03T02:27:36.766Z,25.34
2017-09-03T02:30:03.134Z,25.21
2017-09-03T02:32:29.436Z,25.19
2017-09-03T02:34:55.744Z,25.13
2017-09-03T02:37:22.112Z,25.07
2017-09-03T02:39:48.410Z,25.21
2017-09-03T02:42:14.717Z,25.22
2017-09-03T02:44:41.084Z,25.30
2017-09-03T02:47:07.407Z,25.33
2017-09-03T02:49:33.704Z,25.19
2017-09-03T02:52:00.072Z,25.11
2017-09-03T02:54:26.378Z,25.14
2017-09-03T02:56:52.677Z,25.08
2017-09-03T02:59:19.050Z,25.05
2017-09-03T03:01:45.361Z,25.05
2017-09-03T03:04:11.663Z,25.09
2017-09-03T03:06:38.002Z,25.09
2017-09-03T03:09:04.305Z,25.07
2017-09-03T03:11:30.596Z,24.96
2017-09-03T03:13:56.963Z,25.16
2017-09-03T03:16:23.266Z,25.20
2017-09-03T03:18:49.565Z,25.29
2017-09-03T03:21:15.937Z,25.24
2017-09-03T03:23:42.252Z,25.38
2017-09-03T03:26:08.583Z,25.43
2017-09-03T03:28:34.947Z,25.42
2017-09-03T03:31:01.242Z,25.48
2017-09-03T03:33:27.552Z,25.47
2017-09-03T03:35:53.924Z,25.45
2017-09-03T03:38:20.236Z,25.64
2017-09-03T03:40:46.553Z,25.69
2017-09-03T03:43:12.920Z,25.77
2017-09-03T03:45:39.223Z,25.85
2017-09-03T03:48:05.537Z,25.87
2017-09-03T03:50:31.916Z,25.91
2017-09-03T03:52:58.215Z,25.83
2017-09-03T03:55:24.517Z,25.77
2017-09-03T03:57:50.919Z,25.78
2017-09-03T04:00:17.237Z,25.92
2017-09-03T04:02:43.531Z,26.24
2017-09-03T04:05:09.917Z,26.58
2017-09-03T04:07:36.222Z,26.88
2017-09-03T04:10:02.517Z,27.16
2017-09-03T04:12:28.869Z,27.40
2017-09-03T04:14:55.185Z,27.75
2017-09-03T04:17:21.488Z,27.85
2017-09-03T04:19:47.872Z,28.04
2017-09-03T04:22:14.182Z,28.62
2017-09-03T04:24:40.491Z,29.09
2017-09-03T04:27:06.836Z,29.69
2017-09-03T04:29:33.144Z,30.24
2017-09-03T04:31:59.468Z,30.60
2017-09-03T04:34:25.847Z,31.25
2017-09-03T04:36:52.161Z,31.01
2017-09-03T04:39:18.461Z,31.62
2017-09-03T04:41:44.828Z,31.13
2017-09-03T04:44:11.135Z,31.12
2017-09-03T04:46:37.452Z,31.86
2017-09-03T04:49:03.809Z,32.42
2017-09-03T04:51:30.115Z,32.49
2017-09-03T04:53:56.409Z,33.01
2017-09-03T04:56:22.773Z,33.21
2017-09-03T04:58:49.073Z,33.59
2017-09-03T05:01:15.380Z,33.62
2017-09-03T05:03:41.736Z,34.05
2017-09-03T05:06:08.056Z,34.58
2017-09-03T05:08:34.433Z,34.75
2017-09-03T05:11:00.852Z,35.07
2017-09-03T05:13:27.150Z,35.73
2017-09-03T05:15:53.537Z,36.45
2017-09-03T05:18:19.963Z,36.88
2017-09-03T05:20:46.338Z,37.29
2017-09-03T05:23:12.709Z,37.06
2017-09-03T05:25:39.129Z,37.45
2017-09-03T05:28:05.514Z,38.39
2017-09-03T05:30:31.884Z,37.57
2017-09-03T05:32:58.303Z,36.95
2017-09-03T05:35:24.662Z,36.05
2017-09-03T05:37:51.039Z,35.30
2017-09-03T05:40:17.472Z,35.61
2017-09-03T05:42:43.851Z,35.79
2017-09-03T05:45:10.208Z,35.38
2017-09-03T05:47:36.664Z,35.38
2017-09-03T05:50:03.058Z,36.92
2017-09-03T05:52:29.435Z,37.31
2017-09-03T05:54:56.044Z,37.95
2017-09-03T05:57:22.430Z,36.95
2017-09-03T05:59:48.808Z,37.96
2017-09-03T06:02:15.259Z,36.80
2017-09-03T06:04:41.625Z,36.77
2017-09-03T06:07:08.007Z,37.11
2017-09-03T06:09:34.453Z,37.77
2017-09-03T06:12:00.848Z,36.94
2017-09-03T06:14:27.238Z,36.01
2017-09-03T06:16:53.679Z,36.49
2017-09-03T06:19:20.054Z,37.23
2017-09-03T06:21:46.436Z,37.85
2017-09-03T06:24:12.886Z,38.31
2017-09-03T06:26:39.263Z,38.75
2017-09-03T06:29:05.639Z,37.98
2017-09-03T06:31:32.103Z,37.33
2017-09-03T06:33:58.489Z,36.56
2017-09-03T06:36:24.859Z,37.21
2017-09-03T06:38:51.277Z,37.23
2017-09-03T06:41:17.649Z,36.78
2017-09-03T06:43:44.114Z,38.07
2017-09-03T06:46:10.541Z,39.22
2017-09-03T06:48:36.923Z,39.29
2017-09-03T06:51:03.289Z,38.95
2017-09-03T06:53:29.713Z,39.37
2017-09-03T06:55:56.075Z,38.76
2017-09-03T06:58:22.447Z,37.99
2017-09-03T07:00:48.925Z,36.98
2017-09-03T07:03:15.319Z,36.32
2017-09-03T07:05:41.698Z,36.82
2017-09-03T07:08:08.137Z,37.19
2017-09-03T07:10:34.493Z,36.79
2017-09-03T07:13:00.870Z,37.20
2017-09-03T07:15:27.311Z,37.55
2017-09-03T07:17:53.725Z,37.94
2017-09-03T07:20:20.077Z,35.98
2017-09-03T07:22:46.466Z,35.13
2017-09-03T07:25:12.832Z,35.88
2017-09-03T07:27:39.589Z,36.35
2017-09-03T07:30:06.105Z,36.81
2017-09-03T07:32:32.490Z,37.41
2017-09-03T07:34:58.874Z,38.05
2017-09-03T07:37:25.326Z,37.93
2017-09-03T07:39:51.707Z,38.66
2017-09-03T07:42:18.068Z,37.53
2017-09-03T07:44:44.497Z,37.36
2017-09-03T07:47:10.864Z,37.94
2017-09-03T07:49:37.218Z,38.80
2017-09-03T07:52:03.632Z,39.53
2017-09-03T07:54:30.004Z,38.08
2017-09-03T07:56:56.385Z,38.29
2017-09-03T07:59:22.824Z,37.97
2017-09-03T08:01:49.215Z,37.89
2017-09-03T08:04:15.585Z,38.78
2017-09-03T08:06:42.011Z,39.70
2017-09-03T08:09:08.405Z,40.12
2017-09-03T08:11:34.797Z,39.02
2017-09-03T08:14:01.236Z,40.01
2017-09-03T08:16:27.602Z,39.57
2017-09-03T08:18:53.996Z,39.49
2017-09-03T08:21:20.422Z,39.59
2017-09-03T08:23:46.808Z,40.42
2017-09-03T08:26:13.334Z,41.12
2017-09-03T08:28:39.976Z,41.96
2017-09-03T08:31:06.437Z,40.49
2017-09-03T08:33:32.937Z,39.23
2017-09-03T08:35:59.574Z,38.53
2017-09-03T08:38:26.345Z,36.69
2017-09-03T08:40:53.005Z,36.06
2017-09-03T08:43:19.734Z,36.07
2017-09-03T08:45:46.277Z,37.45
2017-09-03T08:48:12.666Z,39.05
2017-09-03T08:50:39.090Z,39.81
2017-09-03T08:53:05.609Z,40.22
2017-09-03T08:55:32.219Z,41.08
2017-09-03T08:57:58.856Z,40.83
2017-09-03T09:00:25.479Z,40.01
2017-09-03T09:02:51.866Z,39.31
2017-09-03T09:05:18.244Z,38.41
2017-09-03T09:07:45.000Z,38.79
2017-09-03T09:10:11.496Z,38.52
2017-09-03T09:12:38.067Z,39.01
2017-09-03T09:15:04.711Z,37.37
2017-09-03T09:17:31.080Z,37.11
2017-09-03T09:19:57.464Z,38.06
2017-09-03T09:22:23.847Z,37.76
2017-09-03T09:24:50.227Z,38.88
2017-09-03T09:27:16.848Z,38.33
2017-09-03T09:29:43.210Z,38.15
2017-09-03T09:32:09.930Z,39.38
2017-09-03T09:34:36.380Z,39.15
2017-09-03T09:37:02.735Z,39.05
2017-09-03T09:39:29.426Z,39.41
2017-09-03T09:41:55.873Z,38.52
2017-09-03T09:44:22.371Z,38.53
2017-09-03T09:46:48.908Z,39.49
2017-09-03T09:49:15.429Z,39.49
2017-09-03T09:51:41.815Z,39.00
2017-09-03T09:54:08.289Z,39.01
2017-09-03T09:56:34.829Z,39.95
2017-09-03T09:59:01.374Z,41.41
2017-09-03T10:01:27.965Z,42.13
2017-09-03T10:03:54.584Z,43.01
2017-09-03T10:06:21.080Z,42.46
2017-09-03T10:08:47.453Z,41.96
2017-09-03T10:11:14.089Z,40.84
2017-09-03T10:13:40.569Z,41.47
2017-09-03T10:16:07.119Z,41.51
2017-09-03T10:18:33.659Z,39.32
2017-09-03T10:21:00.245Z,39.06
2017-09-03T10:23:26.891Z,38.49
2017-09-03T10:25:53.513Z,37.78
2017-09-03T10:28:19.965Z,37.79
2017-09-03T10:30:46.597Z,38.38
2017-09-03T10:33:13.095Z,39.78
2017-09-03T10:35:39.873Z,38.84
2017-09-03T10:38:06.617Z,38.49
2017-09-03T10:40:33.214Z,39.28
2017-09-03T10:42:59.581Z,39.19
2017-09-03T10:45:26.302Z,38.37
2017-09-03T10:47:52.751Z,37.19
2017-09-03T10:50:19.189Z,37.37
2017-09-03T10:52:45.821Z,38.47
2017-09-03T10:55:12.325Z,38.68
2017-09-03T10:57:39.093Z,38.62
2017-09-03T11:00:05.683Z,37.86
2017-09-03T11:02:32.228Z,37.97
2017-09-03T11:04:58.808Z,37.41
2017-09-03T11:07:25.446Z,36.93
2017-09-03T11:09:51.810Z,36.84
2017-09-03T11:12:18.300Z,36.05
2017-09-03T11:14:44.744Z,34.44
2017-09-03T11:17:11.383Z,33.30
2017-09-03T11:19:37.825Z,32.87
2017-09-03T11:22:04.439Z,32.64
2017-09-03T11:24:30.956Z,32.23
2017-09-03T11:26:57.597Z,32.99
2017-09-03T11:29:24.062Z,34.15
2017-09-03T11:31:50.682Z,34.96
2017-09-03T11:34:17.205Z,35.68
2017-09-03T11:36:43.922Z,35.95
2017-09-03T11:39:10.415Z,36.53
2017-09-03T11:41:36.769Z,36.87
2017-09-03T11:44:03.274Z,36.84
2017-09-03T11:46:29.859Z,38.10
2017-09-03T11:48:56.559Z,38.57
2017-09-03T11:51:23.273Z,39.45
2017-09-03T11:53:50.033Z,40.41
2017-09-03T11:56:16.670Z,39.87
2017-09-03T11:58:43.107Z,38.74
2017-09-03T12:01:09.696Z,35.78
2017-09-03T12:03:36.059Z,36.47
2017-09-03T12:08:34.167Z,38.20
2017-09-03T12:11:00.554Z,37.34
2017-09-03T12:13:27.016Z,38.11
2017-09-03T12:15:53.398Z,38.17
2017-09-03T12:18:19.767Z,38.71
2017-09-03T12:20:46.198Z,38.43
2017-09-03T12:23:12.570Z,38.92
2017-09-03T12:25:38.951Z,38.17
2017-09-03T12:28:05.365Z,38.59
2017-09-03T12:30:31.756Z,37.27
2017-09-03T12:32:58.135Z,37.06
2017-09-03T12:35:24.592Z,37.27
2017-09-03T12:37:50.978Z,38.43
2017-09-03T12:40:17.414Z,38.95
2017-09-03T12:42:43.890Z,39.66
2017-09-03T12:45:10.244Z,37.73
2017-09-03T12:47:36.616Z,38.22
2017-09-03T12:50:03.077Z,39.14
2017-09-03T12:52:29.473Z,39.29
2017-09-03T12:54:55.836Z,39.04
2017-09-03T12:57:22.254Z,38.11
2017-09-03T12:59:48.619Z,38.28
2017-09-03T13:02:14.970Z,39.46
2017-09-03T13:04:41.418Z,39.66
2017-09-03T13:07:07.790Z,38.11
2017-09-03T13:09:34.157Z,36.78
2017-09-03T13:12:00.602Z,36.57
2017-09-03T13:14:26.985Z,35.30
2017-09-03T13:16:53.351Z,35.43
2017-09-03T13:19:19.792Z,34.28
2017-09-03T13:21:46.166Z,34.09
2017-09-03T13:24:12.553Z,33.97
2017-09-03T13:26:38.929Z,33.70
2017-09-03T13:29:05.310Z,33.30
2017-09-03T13:31:31.668Z,32.54
2017-09-03T13:33:58.032Z,32.00
2017-09-03T13:36:24.329Z,32.06
2017-09-03T13:38:50.728Z,32.18
2017-09-03T13:41:17.021Z,32.20
2017-09-03T13:43:43.320Z,32.49
2017-09-03T13:46:09.726Z,32.53
2017-09-03T13:48:36.029Z,32.52
2017-09-03T13:51:02.334Z,32.31
2017-09-03T13:53:28.703Z,32.12
2017-09-03T13:55:55.015Z,32.17
2017-09-03T13:58:21.339Z,32.30
2017-09-03T14:00:47.681Z,32.34
2017-09-03T14:03:14.033Z,32.25
2017-09-03T14:05:40.338Z,32.27
2017-09-03T14:08:06.633Z,32.37
2017-09-03T14:10:33.009Z,32.41
2017-09-03T14:12:59.294Z,32.40
2017-09-03T14:15:25.596Z,32.30
2017-09-03T14:17:51.983Z,32.11
2017-09-03T14:20:18.280Z,32.12
2017-09-03T14:22:44.569Z,32.07
2017-09-03T14:25:10.908Z,32.18
2017-09-03T14:27:37.211Z,32.20
2017-09-03T14:30:03.526Z,31.86
2017-09-03T14:32:29.891Z,31.47
2017-09-03T14:34:56.185Z,31.68
2017-09-03T14:37:22.483Z,31.61
2017-09-03T14:39:48.842Z,31.45
2017-09-03T14:42:15.138Z,31.43
2017-09-03T14:44:41.436Z,31.37
2017-09-03T14:47:07.805Z,31.28
2017-09-03T14:49:34.125Z,31.27
2017-09-03T14:52:00.452Z,31.15
2017-09-03T14:54:26.831Z,31.10
2017-09-03T14:56:53.145Z,31.09
2017-09-03T14:59:19.470Z,30.99
2017-09-03T15:01:45.802Z,30.92
2017-09-03T15:04:12.177Z,30.94
2017-09-03T15:06:38.499Z,31.01
2017-09-03T15:09:04.810Z,30.98
2017-09-03T15:11:31.136Z,30.91
2017-09-03T15:13:57.454Z,30.90
2017-09-03T15:16:23.772Z,30.88
2017-09-03T15:18:50.134Z,30.92
2017-09-03T15:21:16.444Z,30.91
2017-09-03T15:23:42.756Z,30.81
2017-09-03T15:26:09.119Z,30.73
2017-09-03T15:28:35.445Z,30.74
2017-09-03T15:31:01.769Z,30.72
2017-09-03T15:33:28.128Z,30.50
2017-09-03T15:35:54.445Z,30.50
2017-09-03T15:38:20.753Z,30.42
2017-09-03T15:40:47.111Z,30.45
2017-09-03T15:43:13.428Z,30.38
2017-09-03T15:45:39.741Z,30.24
2017-09-03T15:48:06.099Z,30.10
2017-09-03T15:50:32.411Z,30.13
2017-09-03T15:52:58.742Z,30.04
2017-09-03T15:55:25.108Z,29.96
2017-09-03T15:57:51.551Z,29.91
2017-09-03T16:00:17.824Z,29.81
2017-09-03T16:02:44.196Z,29.76
2017-09-03T16:05:10.488Z,29.68
2017-09-03T16:07:36.806Z,29.59
2017-09-03T16:10:03.160Z,29.48
2017-09-03T16:12:29.449Z,29.28
2017-09-03T16:14:55.729Z,29.24
2017-09-03T16:17:22.098Z,29.11
2017-09-03T16:19:48.414Z,28.87
2017-09-03T16:22:14.708Z,28.81
2017-09-03T16:24:41.087Z,28.66
2017-09-03T16:27:07.377Z,28.47
2017-09-03T16:29:33.672Z,28.30
2017-09-03T16:32:00.202Z,28.16
2017-09-03T16:34:26.881Z,28.15
2017-09-03T16:36:53.216Z,28.05
2017-09-03T16:39:20.921Z,27.98
2017-09-03T16:41:47.409Z,27.82
2017-09-03T16:44:13.846Z,27.68
2017-09-03T16:46:40.272Z,27.62
2017-09-03T16:49:06.557Z,27.51
2017-09-03T16:51:32.844Z,27.46
2017-09-03T16:53:59.359Z,27.37
2017-09-03T16:56:25.633Z,27.29
2017-09-03T16:58:52.024Z,27.23
2017-09-03T17:01:18.665Z,27.23
2017-09-03T17:03:45.108Z,27.18
2017-09-03T17:06:11.434Z,27.15
2017-09-03T17:08:37.778Z,27.13
2017-09-03T17:11:04.093Z,27.09
2017-09-03T17:13:30.693Z,27.02
2017-09-03T17:15:57.468Z,26.91
2017-09-03T17:18:24.076Z,26.83
2017-09-03T17:20:50.747Z,26.83
2017-09-03T17:23:17.189Z,26.78
2017-09-03T17:25:43.818Z,26.65
2017-09-03T17:28:10.107Z,26.56
2017-09-03T17:30:36.463Z,26.53
2017-09-03T17:33:02.943Z,26.45
2017-09-03T17:35:29.363Z,26.35
2017-09-03T17:37:55.941Z,26.19
2017-09-03T17:40:22.624Z,26.05
2017-09-03T17:42:49.052Z,25.99
2017-09-03T17:45:15.693Z,25.85
2017-09-03T17:47:42.339Z,25.66
2017-09-03T17:50:08.950Z,25.51
2017-09-03T17:52:35.411Z,25.49
2017-09-03T17:55:01.836Z,25.65
2017-09-03T17:57:28.272Z,25.83
2017-09-03T17:59:54.901Z,25.89
2017-09-03T18:02:21.491Z,25.88
2017-09-03T18:04:47.793Z,25.93
2017-09-03T18:07:14.404Z,25.97
2017-09-03T18:09:40.846Z,25.95
2017-09-03T18:12:07.283Z,25.74
2017-09-03T18:14:33.917Z,25.44
2017-09-03T18:17:00.553Z,25.36
2017-09-03T18:19:27.159Z,25.47
2017-09-03T18:21:53.622Z,25.39
2017-09-03T18:24:20.222Z,25.34
2017-09-03T18:26:46.664Z,24.84
2017-09-03T18:29:13.340Z,24.46
2017-09-03T18:31:39.972Z,24.02
2017-09-03T18:34:06.260Z,23.37
2017-09-03T18:36:32.686Z,22.90
2017-09-03T18:38:59.479Z,22.10
2017-09-03T18:41:25.908Z,21.60
2017-09-03T18:43:52.190Z,21.19
2017-09-03T18:46:18.571Z,21.14
2017-09-03T18:48:44.849Z,20.90
2017-09-03T18:51:11.226Z,20.72
2017-09-03T18:53:37.687Z,20.58
2017-09-03T18:56:04.154Z,20.40
2017-09-03T18:58:30.589Z,20.51
2017-09-03T19:00:57.129Z,20.43
2017-09-03T19:03:23.595Z,20.38
2017-09-03T19:05:50.039Z,20.40
2017-09-03T19:08:16.472Z,20.42
2017-09-03T19:10:42.948Z,20.28
2017-09-03T19:13:09.536Z,20.02
2017-09-03T19:15:35.975Z,19.56
2017-09-03T19:18:02.770Z,18.98
2017-09-03T19:20:29.183Z,18.52
2017-09-03T19:22:55.471Z,18.36
2017-09-03T19:25:21.758Z,18.43
2017-09-03T19:27:48.132Z,18.35
2017-09-03T19:30:14.472Z,18.41
2017-09-03T19:32:40.776Z,18.50
2017-09-03T19:35:07.076Z,18.51
2017-09-03T19:37:33.428Z,18.70
2017-09-03T19:39:59.775Z,18.86
2017-09-03T19:42:26.062Z,18.89
2017-09-03T19:44:52.409Z,18.94
2017-09-03T19:47:18.699Z,18.90
2017-09-03T19:49:45.002Z,18.94
2017-09-03T19:52:11.356Z,19.03
2017-09-03T19:54:37.642Z,18.89
2017-09-03T19:57:04.012Z,18.77
2017-09-03T19:59:30.389Z,18.71
2017-09-03T20:01:56.685Z,18.47
2017-09-03T20:04:22.990Z,18.44
2017-09-03T20:06:49.553Z,18.35
2017-09-03T20:09:15.865Z,18.32
2017-09-03T20:11:42.207Z,18.34
2017-09-03T20:14:08.653Z,18.43
2017-09-03T20:16:34.943Z,18.57
2017-09-03T20:19:01.245Z,18.70
2017-09-03T20:21:27.599Z,18.70
2017-09-03T20:23:53.908Z,18.71
2017-09-03T20:26:20.211Z,18.50
2017-09-03T20:28:46.588Z,18.58
2017-09-03T20:31:12.890Z,18.65
2017-09-03T20:33:39.304Z,18.72
2017-09-03T20:36:05.614Z,18.61
2017-09-03T20:38:31.913Z,18.58
2017-09-03T20:40:58.266Z,18.53
2017-09-03T20:43:24.605Z,18.48
2017-09-03T20:45:51.212Z,18.44
2017-09-03T20:48:18.082Z,18.53
2017-09-03T20:50:44.361Z,18.54
2017-09-03T20:53:10.768Z,18.55
2017-09-03T20:55:37.176Z,18.49
2017-09-03T20:58:03.588Z,18.54
2017-09-03T21:00:30.252Z,18.66
2017-09-03T21:02:56.889Z,18.64
2017-09-03T21:05:23.525Z,18.64
2017-09-03T21:07:49.958Z,18.81
2017-09-03T21:10:16.600Z,18.68
2017-09-03T21:12:42.902Z,18.58
2017-09-03T21:15:09.199Z,18.48
2017-09-03T21:17:35.551Z,18.59
2017-09-03T21:20:01.854Z,18.54
2017-09-03T21:22:28.156Z,18.69
2017-09-03T21:24:54.520Z,18.76
2017-09-03T21:27:20.844Z,18.62
2017-09-03T21:29:47.140Z,18.55
2017-09-03T21:32:13.508Z,18.48
2017-09-03T21:34:39.793Z,18.45
2017-09-03T21:37:06.100Z,18.46
2017-09-03T21:39:32.474Z,18.48
2017-09-03T21:41:58.776Z,18.56
2017-09-03T21:44:25.081Z,18.62
2017-09-03T21:46:51.612Z,18.59
2017-09-03T21:49:18.305Z,18.51
2017-09-03T21:51:44.728Z,18.39
2017-09-03T21:54:11.168Z,18.43
2017-09-03T21:56:37.602Z,18.44
2017-09-03T21:59:04.033Z,18.41
2017-09-03T22:01:30.638Z,18.50
2017-09-03T22:03:57.311Z,18.51
2017-09-03T22:06:23.847Z,18.48
2017-09-03T22:08:50.487Z,18.43
2017-09-03T22:11:16.918Z,18.37
2017-09-03T22:13:43.351Z,18.43
2017-09-03T22:16:09.941Z,18.46
2017-09-03T22:18:36.423Z,18.48
2017-09-03T22:21:02.754Z,18.46
2017-09-03T22:23:29.290Z,18.44
2017-09-03T22:25:55.919Z,18.56
2017-09-03T22:28:22.366Z,18.60
2017-09-03T22:30:48.792Z,18.66
2017-09-03T22:33:15.228Z,18.61
2017-09-03T22:35:41.848Z,18.64
2017-09-03T22:38:08.445Z,18.75
2017-09-03T22:40:34.748Z,18.64
2017-09-03T22:43:01.153Z,18.55
2017-09-03T22:45:27.674Z,18.43
2017-09-03T22:47:54.025Z,18.35
2017-09-03T22:50:20.631Z,18.50
2017-09-03T22:52:47.129Z,18.60
2017-09-03T22:55:13.592Z,18.74
2017-09-03T22:57:40.036Z,18.70
2017-09-03T23:00:06.403Z,18.60
2017-09-03T23:02:32.835Z,18.50
2017-09-03T23:04:59.460Z,18.43
2017-09-03T23:07:25.907Z,18.38
2017-09-03T23:09:52.517Z,18.37
2017-09-03T23:12:18.960Z,18.43
2017-09-03T23:14:45.399Z,18.53
2017-09-03T23:17:12.013Z,18.47
2017-09-03T23:19:38.459Z,18.54
2017-09-03T23:22:05.077Z,18.53
2017-09-03T23:24:31.758Z,18.51
2017-09-03T23:26:58.380Z,18.62
2017-09-03T23:29:24.903Z,18.72
2017-09-03T23:31:51.263Z,18.66
2017-09-03T23:34:17.862Z,18.63
2017-09-03T23:36:44.377Z,18.47
2017-09-03T23:39:10.921Z,18.46
2017-09-03T23:41:37.366Z,18.48
2017-09-03T23:44:04.001Z,18.41
2017-09-03T23:46:30.675Z,18.41
2017-09-03T23:48:57.166Z,18.31
2017-09-03T23:51:23.954Z,18.35
2017-09-03T23:53:50.418Z,18.36
2017-09-03T23:56:16.827Z,18.29
2017-09-03T23:58:43.251Z,18.24
